Time;durP1;ratioP1;P1;durP2;ratioP2;P2;SDS_P1;SDS_P2;PMS_P1;PMS_P2;Temp;Humidity;BMP_temperature;BMP_pressure;BME280_temperature;BME280_humidity;BME280_pressure;Samples;Min_cycle;Max_cycle;Signal;HPM_P1;HPM_P2
2022/10/19 00:01:49;;;;;;;6.35;2.10;;;13.10;99.90;;;;;;5043699;28;20243;-71
2022/10/19 00:04:16;;;;;;;8.23;2.50;;;13.20;99.90;;;;;;5059387;28;20344;-73
2022/10/19 00:06:44;;;;;;;7.75;2.13;;;13.10;99.90;;;;;;5057086;28;20242;-72
2022/10/19 00:09:14;;;;;;;5.60;2.88;;;13.10;99.90;;;;;;5052311;28;20230;-73
2022/10/19 00:11:44;;;;;;;4.00;2.53;;;13.00;99.90;;;;;;5049309;28;20219;-73
2022/10/19 00:14:13;;;;;;;8.80;2.88;;;13.00;99.90;;;;;;5047177;28;20206;-73
2022/10/19 00:16:44;;;;;;;4.65;2.15;;;13.00;99.90;;;;;;5058853;28;20203;-72
2022/10/19 00:19:13;;;;;;;3.28;1.95;;;13.00;99.90;;;;;;5052551;28;20224;-71
2022/10/19 00:21:41;;;;;;;6.55;2.45;;;13.00;99.90;;;;;;5049249;28;20223;-72
2022/10/19 00:24:08;;;;;;;11.98;3.10;;;13.00;99.90;;;;;;5052350;28;20196;-72
2022/10/19 00:26:37;;;;;;;7.20;2.10;;;13.00;99.90;;;;;;5055849;28;20650;-72
2022/10/19 00:29:05;;;;;;;8.75;2.65;;;13.00;99.90;;;;;;5051886;28;20219;-73
2022/10/19 00:31:32;;;;;;;3.90;2.30;;;13.00;99.90;;;;;;5054172;28;20283;-72
2022/10/19 00:34:00;;;;;;;7.60;2.42;;;13.00;99.90;;;;;;5056521;28;20235;-72
2022/10/19 00:36:29;;;;;;;7.95;2.35;;;13.00;99.90;;;;;;5052021;28;20214;-72
2022/10/19 00:38:56;;;;;;;6.18;2.70;;;13.10;99.90;;;;;;5051715;28;20223;-71
2022/10/19 00:41:25;;;;;;;8.05;2.40;;;13.10;99.90;;;;;;5054277;28;20318;-74
2022/10/19 00:43:57;;;;;;;5.97;2.35;;;13.10;99.90;;;;;;5062883;28;20274;-71
2022/10/19 00:46:25;;;;;;;3.92;2.30;;;13.10;99.90;;;;;;5057125;28;20206;-70
2022/10/19 00:48:57;;;;;;;3.75;1.50;;;13.10;99.90;;;;;;5053940;28;20230;-73
2022/10/19 00:51:27;;;;;;;6.60;2.67;;;13.20;99.90;;;;;;5051910;28;20239;-72
2022/10/19 00:53:55;;;;;;;4.93;1.80;;;13.00;99.90;;;;;;5052162;28;20285;-74
2022/10/19 00:56:23;;;;;;;7.45;2.97;;;13.00;99.90;;;;;;5050550;28;20580;-72
2022/10/19 00:58:50;;;;;;;5.95;1.80;;;13.10;99.90;;;;;;5052047;28;20310;-74
2022/10/19 01:01:20;;;;;;;8.43;2.03;;;13.10;99.90;;;;;;5050707;28;20233;-74
2022/10/19 01:03:48;;;;;;;3.42;1.90;;;13.10;99.90;;;;;;5055082;28;20297;-73
2022/10/19 01:06:17;;;;;;;6.15;2.70;;;13.00;99.90;;;;;;5054029;28;20243;-72
2022/10/19 01:08:44;;;;;;;7.55;2.22;;;13.00;99.90;;;;;;5042916;28;20637;-72
2022/10/19 01:11:25;;;;;;;8.55;2.80;;;13.00;99.90;;;;;;5049747;28;20244;-72
2022/10/19 01:14:05;;;;;;;4.65;2.20;;;13.00;99.90;;;;;;5045093;28;20249;-72
2022/10/19 01:16:42;;;;;;;12.05;2.50;;;13.10;99.90;;;;;;5046891;28;20196;-72
2022/10/19 01:19:30;;;;;;;13.63;3.25;;;13.10;99.90;;;;;;5049271;28;20309;-73
2022/10/19 01:22:07;;;;;;;6.82;2.63;;;13.10;99.90;;;;;;5046132;28;20580;-75
2022/10/19 01:24:51;;;;;;;10.90;4.90;;;13.10;99.90;;;;;;5048213;28;20627;-72
2022/10/19 01:27:50;;;;;;;9.73;3.08;;;13.10;99.90;;;;;;5041776;28;20282;-74
2022/10/19 01:30:35;;;;;;;3.80;2.30;;;13.10;99.90;;;;;;5049377;28;20198;-74
2022/10/19 01:33:15;;;;;;;6.05;2.60;;;13.10;99.90;;;;;;5051652;28;20725;-71
2022/10/19 01:35:47;;;;;;;14.38;3.58;;;13.00;99.90;;;;;;5051168;28;20619;-73
2022/10/19 01:38:25;;;;;;;7.97;2.45;;;13.10;99.90;;;;;;5052072;28;20299;-72
2022/10/19 01:40:56;;;;;;;3.30;1.80;;;13.10;99.90;;;;;;5046420;28;20649;-73
2022/10/19 01:43:31;;;;;;;9.27;2.60;;;13.10;99.90;;;;;;5054903;28;20287;-74
2022/10/19 01:46:06;;;;;;;2.75;2.10;;;13.20;99.90;;;;;;5048073;28;20199;-70
2022/10/19 01:48:36;;;;;;;6.65;3.03;;;13.10;99.90;;;;;;5054640;28;20257;-71
2022/10/19 01:51:09;;;;;;;7.78;2.53;;;13.10;99.90;;;;;;5052176;28;20231;-72
2022/10/19 01:53:41;;;;;;;9.10;2.72;;;13.10;99.90;;;;;;5053535;28;20202;-71
2022/10/19 01:56:11;;;;;;;5.95;1.80;;;13.10;99.90;;;;;;5049262;28;20305;-72
2022/10/19 01:58:42;;;;;;;11.90;2.40;;;13.10;99.90;;;;;;5054220;28;20226;-71
2022/10/19 02:01:12;;;;;;;5.75;1.80;;;13.00;99.90;;;;;;5050419;28;20710;-70
2022/10/19 02:03:40;;;;;;;11.18;2.30;;;13.00;99.90;;;;;;5054545;28;20301;-70
2022/10/19 02:06:09;;;;;;;9.65;2.60;;;13.00;99.90;;;;;;5060725;28;20199;-72
2022/10/19 02:08:41;;;;;;;5.38;2.20;;;13.10;99.90;;;;;;5054386;28;20314;-72
2022/10/19 02:11:08;;;;;;;8.80;2.67;;;13.10;99.90;;;;;;5049895;28;20284;-72
2022/10/19 02:13:38;;;;;;;9.10;2.55;;;13.10;99.90;;;;;;5050826;28;20239;-72
2022/10/19 02:16:12;;;;;;;11.15;2.38;;;13.10;99.90;;;;;;5046659;28;20218;-72
2022/10/19 02:18:45;;;;;;;7.55;2.28;;;13.00;99.90;;;;;;5061300;28;20685;-72
2022/10/19 02:21:12;;;;;;;10.63;3.08;;;13.00;99.90;;;;;;5061258;28;20227;-71
2022/10/19 02:23:39;;;;;;;6.53;2.65;;;13.00;99.90;;;;;;5050641;28;20291;-73
2022/10/19 02:26:06;;;;;;;6.20;2.15;;;13.00;99.90;;;;;;5055621;28;20206;-72
2022/10/19 02:28:34;;;;;;;47.53;3.50;;;13.00;99.90;;;;;;5057625;28;20310;-73
2022/10/19 02:31:01;;;;;;;16.02;2.88;;;12.90;99.90;;;;;;5065753;28;20230;-70
2022/10/19 02:33:32;;;;;;;9.50;3.70;;;12.90;99.90;;;;;;5055608;28;20207;-72
2022/10/19 02:36:00;;;;;;;7.15;2.75;;;12.90;99.90;;;;;;5056396;28;20217;-71
2022/10/19 02:38:28;;;;;;;4.28;2.33;;;12.90;99.90;;;;;;5062510;28;20321;-70
2022/10/19 02:41:03;;;;;;;12.05;2.60;;;12.90;99.90;;;;;;5056585;28;20222;-71
2022/10/19 02:43:33;;;;;;;8.73;2.00;;;12.90;99.90;;;;;;5054100;28;20240;-72
2022/10/19 02:46:04;;;;;;;6.00;2.28;;;12.90;99.90;;;;;;5047757;28;20278;-74
2022/10/19 02:48:33;;;;;;;7.28;2.80;;;13.00;99.90;;;;;;5066762;28;20253;-71
2022/10/19 02:51:01;;;;;;;7.15;2.50;;;13.00;99.90;;;;;;5051861;28;20290;-72
2022/10/19 02:53:29;;;;;;;11.32;2.20;;;13.00;99.90;;;;;;5053415;28;20257;-72
2022/10/19 02:55:55;;;;;;;8.80;3.28;;;13.00;99.90;;;;;;5059911;28;20202;-71
2022/10/19 02:58:22;;;;;;;5.97;2.05;;;13.00;99.90;;;;;;5053728;28;20306;-73
2022/10/19 03:00:49;;;;;;;6.75;4.07;;;13.00;99.90;;;;;;5052918;28;20251;-72
2022/10/19 03:03:16;;;;;;;7.00;2.78;;;13.00;99.90;;;;;;5053874;28;20305;-73
2022/10/19 03:05:43;;;;;;;5.65;2.28;;;13.00;99.90;;;;;;5053973;28;20213;-72
2022/10/19 03:08:11;;;;;;;5.97;4.32;;;13.10;99.90;;;;;;5053203;28;20219;-74
2022/10/19 03:10:38;;;;;;;5.10;2.00;;;13.10;99.90;;;;;;5052826;28;20705;-72
2022/10/19 03:13:05;;;;;;;4.18;2.05;;;13.10;99.90;;;;;;5053386;28;20283;-72
2022/10/19 03:15:32;;;;;;;4.72;3.25;;;13.10;99.90;;;;;;5054021;28;20196;-73
2022/10/19 03:17:59;;;;;;;3.53;2.20;;;13.10;99.90;;;;;;5053405;28;20306;-73
2022/10/19 03:20:26;;;;;;;6.00;2.00;;;13.10;99.90;;;;;;5051251;28;20543;-72
2022/10/19 03:22:53;;;;;;;7.45;2.30;;;13.10;99.90;;;;;;5053187;28;20208;-72
2022/10/19 03:25:21;;;;;;;9.05;2.63;;;13.10;99.90;;;;;;5052963;28;20242;-74
2022/10/19 03:27:48;;;;;;;5.18;2.45;;;13.10;99.90;;;;;;5044966;28;20291;-72
2022/10/19 03:30:15;;;;;;;4.57;1.58;;;13.10;99.90;;;;;;5063398;28;20290;-73
2022/10/19 03:32:42;;;;;;;6.97;2.50;;;13.10;99.90;;;;;;5061239;28;20275;-71
2022/10/19 03:35:09;;;;;;;10.55;2.20;;;13.20;99.90;;;;;;5052933;28;20211;-73
2022/10/19 03:37:37;;;;;;;9.85;2.38;;;13.10;99.90;;;;;;5058241;28;20245;-70
2022/10/19 03:40:04;;;;;;;8.07;1.88;;;13.10;99.90;;;;;;5058783;28;20585;-71
2022/10/19 03:42:33;;;;;;;10.73;2.33;;;13.10;99.90;;;;;;5051760;28;20314;-71
2022/10/19 03:45:00;;;;;;;7.75;2.58;;;13.10;99.90;;;;;;5053395;28;20221;-73
2022/10/19 03:47:27;;;;;;;9.10;2.15;;;13.10;99.90;;;;;;5053822;28;20326;-74
2022/10/19 03:49:53;;;;;;;7.35;2.10;;;13.10;99.90;;;;;;5052359;28;20205;-74
2022/10/19 03:52:20;;;;;;;14.35;2.05;;;13.10;99.90;;;;;;5057598;28;20237;-71
2022/10/19 03:54:50;;;;;;;10.23;2.67;;;13.20;99.90;;;;;;5053134;28;20286;-72
2022/10/19 03:57:17;;;;;;;11.05;2.63;;;13.20;99.90;;;;;;5056812;28;20202;-74
2022/10/19 03:59:45;;;;;;;7.35;2.05;;;13.20;99.90;;;;;;5052209;28;20278;-73
2022/10/19 04:02:12;;;;;;;9.80;2.30;;;13.10;99.90;;;;;;5061511;28;20243;-73
2022/10/19 04:04:39;;;;;;;9.05;1.85;;;13.10;99.90;;;;;;5051637;28;20298;-73
2022/10/19 04:07:06;;;;;;;10.65;1.85;;;13.20;99.90;;;;;;5050896;28;20294;-71
2022/10/19 04:09:33;;;;;;;8.43;1.85;;;13.20;99.90;;;;;;5051680;28;20200;-71
2022/10/19 04:12:00;;;;;;;8.68;2.22;;;13.20;99.90;;;;;;5053725;28;20216;-71
2022/10/19 04:14:27;;;;;;;2.80;1.50;;;13.20;99.90;;;;;;5052798;28;20208;-71
2022/10/19 04:16:55;;;;;;;8.25;2.10;;;13.10;99.90;;;;;;5060223;28;20214;-72
2022/10/19 04:19:22;;;;;;;8.23;1.60;;;13.20;99.90;;;;;;5072339;28;20218;-71
2022/10/19 04:21:49;;;;;;;10.00;2.80;;;13.20;99.90;;;;;;5057720;28;20305;-70
2022/10/19 04:24:18;;;;;;;5.22;1.60;;;13.20;99.90;;;;;;5056450;28;20200;-72
2022/10/19 04:26:48;;;;;;;8.70;2.30;;;13.30;99.90;;;;;;5057407;28;20203;-72
2022/10/19 04:29:15;;;;;;;10.07;2.50;;;13.30;99.90;;;;;;5064629;28;20694;-73
2022/10/19 04:31:42;;;;;;;11.70;2.83;;;13.20;99.90;;;;;;5066389;28;20195;-73
2022/10/19 04:34:11;;;;;;;11.55;2.53;;;13.30;99.90;;;;;;5053048;28;20287;-72
2022/10/19 04:36:38;;;;;;;9.02;2.05;;;13.30;99.90;;;;;;5053363;28;20300;-72
2022/10/19 04:39:06;;;;;;;11.05;3.03;;;13.40;99.90;;;;;;5057160;28;20721;-74
2022/10/19 04:41:34;;;;;;;11.00;1.85;;;13.40;99.90;;;;;;5055556;28;20211;-72
2022/10/19 04:44:03;;;;;;;7.22;1.63;;;13.50;99.90;;;;;;5050542;28;20199;-72
2022/10/19 04:46:31;;;;;;;7.50;1.83;;;13.40;99.90;;;;;;5052920;28;20647;-73
2022/10/19 04:48:59;;;;;;;8.32;2.10;;;13.40;99.90;;;;;;5054580;28;20223;-73
2022/10/19 04:51:31;;;;;;;23.15;15.73;;;13.30;99.90;;;;;;5059181;28;20199;-71
2022/10/19 04:53:58;;;;;;;9.13;2.85;;;13.30;99.90;;;;;;5063758;28;20282;-72
2022/10/19 04:56:26;;;;;;;8.68;2.00;;;13.30;99.90;;;;;;5053686;28;20646;-72
2022/10/19 04:58:56;;;;;;;13.27;2.60;;;13.40;99.90;;;;;;5055551;28;20227;-70
2022/10/19 05:01:24;;;;;;;8.20;2.60;;;13.40;99.90;;;;;;5054435;28;20238;-71
2022/10/19 05:03:54;;;;;;;10.88;2.28;;;13.40;99.90;;;;;;5060050;28;20203;-74
2022/10/19 05:06:22;;;;;;;7.32;2.08;;;13.40;99.90;;;;;;5051611;28;20199;-72
2022/10/19 05:08:51;;;;;;;9.50;2.00;;;13.40;99.90;;;;;;5056769;28;20572;-74
2022/10/19 05:11:18;;;;;;;4.03;1.70;;;13.40;99.90;;;;;;5046397;28;20223;-71
2022/10/19 05:13:46;;;;;;;9.98;2.05;;;13.40;99.90;;;;;;5059399;28;20236;-72
2022/10/19 05:16:15;;;;;;;13.07;2.15;;;13.50;99.90;;;;;;5059314;28;20203;-72
2022/10/19 05:18:42;;;;;;;5.95;2.50;;;13.50;99.90;;;;;;5055237;28;20290;-74
2022/10/19 05:21:11;;;;;;;4.05;1.35;;;13.50;99.90;;;;;;5056807;28;20218;-74
2022/10/19 05:23:39;;;;;;;8.75;2.60;;;13.50;99.90;;;;;;5048872;28;20287;-74
2022/10/19 05:26:09;;;;;;;6.80;2.15;;;13.50;99.90;;;;;;5057019;28;20200;-73
2022/10/19 05:28:37;;;;;;;5.65;1.58;;;13.50;99.90;;;;;;5053926;28;20223;-70
2022/10/19 05:31:09;;;;;;;5.72;1.70;;;13.50;99.90;;;;;;5055175;28;20203;-73
2022/10/19 05:33:38;;;;;;;9.45;2.38;;;13.50;99.90;;;;;;5059138;28;20214;-76
2022/10/19 05:36:17;;;;;;;3.80;1.90;;;13.60;99.90;;;;;;5055490;28;20282;-72
2022/10/19 05:38:45;;;;;;;7.50;1.92;;;13.50;99.90;;;;;;5055773;28;20231;-75
2022/10/19 05:41:14;;;;;;;6.03;2.05;;;13.50;99.90;;;;;;5057954;28;20226;-74
2022/10/19 05:43:42;;;;;;;7.60;2.22;;;13.40;99.90;;;;;;5055677;28;20196;-72
2022/10/19 05:46:10;;;;;;;5.10;1.50;;;13.40;99.90;;;;;;5054813;28;20239;-74
2022/10/19 05:48:38;;;;;;;6.57;1.70;;;13.50;99.90;;;;;;5059851;28;20773;-72
2022/10/19 05:51:07;;;;;;;13.20;1.60;;;13.50;99.90;;;;;;5061468;28;20578;-71
2022/10/19 05:53:35;;;;;;;5.63;1.30;;;13.50;99.90;;;;;;5056537;28;20191;-72
2022/10/19 05:56:04;;;;;;;15.10;2.47;;;13.50;99.90;;;;;;5054244;28;20635;-72
2022/10/19 05:58:33;;;;;;;2.70;1.40;;;13.40;99.90;;;;;;5054479;28;20255;-74
2022/10/19 06:01:01;;;;;;;7.93;2.00;;;13.40;99.90;;;;;;5055697;28;20277;-74
2022/10/19 06:03:28;;;;;;;12.48;2.40;;;13.40;99.90;;;;;;5062086;28;20258;-74
2022/10/19 06:05:57;;;;;;;8.30;1.52;;;13.40;99.90;;;;;;5066598;28;20195;-70
2022/10/19 06:08:25;;;;;;;7.10;1.65;;;13.40;99.90;;;;;;5064107;28;20270;-71
2022/10/19 06:10:53;;;;;;;8.70;1.63;;;13.50;99.90;;;;;;5061493;28;20208;-73
2022/10/19 06:13:21;;;;;;;4.70;1.30;;;13.50;99.90;;;;;;5060530;28;20638;-73
2022/10/19 06:15:53;;;;;;;7.90;1.80;;;13.50;99.90;;;;;;5055890;28;20242;-72
2022/10/19 06:18:24;;;;;;;8.13;2.35;;;13.50;99.90;;;;;;5053636;28;20589;-74
2022/10/19 06:20:52;;;;;;;8.40;2.10;;;13.60;99.90;;;;;;5053919;28;20200;-72
2022/10/19 06:23:19;;;;;;;4.20;1.33;;;13.60;99.90;;;;;;5053344;28;20231;-72
2022/10/19 06:25:46;;;;;;;8.77;3.30;;;13.60;99.90;;;;;;5058049;28;20203;-74
2022/10/19 06:28:13;;;;;;;5.13;1.67;;;13.60;99.90;;;;;;5055094;28;20285;-71
2022/10/19 06:30:41;;;;;;;14.68;2.38;;;13.60;99.90;;;;;;5053636;28;20203;-73
2022/10/19 06:33:10;;;;;;;5.22;1.60;;;13.60;99.90;;;;;;5059969;28;20210;-75
2022/10/19 06:35:37;;;;;;;8.20;1.58;;;13.50;99.90;;;;;;5056292;28;20596;-75
2022/10/19 06:38:04;;;;;;;9.60;1.58;;;13.50;99.90;;;;;;5055022;28;20216;-77
2022/10/19 06:40:31;;;;;;;5.07;1.55;;;13.50;99.90;;;;;;5053343;28;20290;-77
2022/10/19 06:42:58;;;;;;;10.25;1.40;;;13.50;99.90;;;;;;5054753;28;20265;-76
2022/10/19 06:45:25;;;;;;;5.50;1.98;;;13.60;99.90;;;;;;5054786;28;20594;-74
2022/10/19 06:47:53;;;;;;;2.13;1.10;;;13.70;99.90;;;;;;5054764;28;20226;-76
2022/10/19 06:50:21;;;;;;;6.30;1.80;;;13.70;99.90;;;;;;5052599;28;20208;-75
2022/10/19 06:52:48;;;;;;;5.35;1.60;;;13.70;99.90;;;;;;5050101;28;20234;-80
2022/10/19 06:55:16;;;;;;;5.80;2.65;;;13.70;99.90;;;;;;5055040;28;20287;-74
2022/10/19 06:57:43;;;;;;;3.65;1.50;;;13.80;99.90;;;;;;5051052;28;20573;-76
2022/10/19 07:00:12;;;;;;;5.47;1.63;;;13.80;99.90;;;;;;5057430;28;20203;-75
2022/10/19 07:02:39;;;;;;;6.55;1.83;;;13.80;99.90;;;;;;5057771;28;20227;-75
2022/10/19 07:05:07;;;;;;;7.82;1.35;;;13.90;99.90;;;;;;5045401;28;20286;-77
2022/10/19 07:07:35;;;;;;;10.20;4.20;;;13.90;99.90;;;;;;5051864;28;20801;-76
2022/10/19 07:10:04;;;;;;;5.78;2.25;;;13.90;99.90;;;;;;5052811;28;20212;-75
2022/10/19 07:12:31;;;;;;;4.03;1.42;;;13.90;99.90;;;;;;5058336;28;20279;-76
2022/10/19 07:14:58;;;;;;;4.05;1.40;;;14.00;99.90;;;;;;5052772;28;20202;-75
2022/10/19 07:17:25;;;;;;;4.60;1.52;;;14.00;99.90;;;;;;5054432;28;20341;-77
2022/10/19 07:19:52;;;;;;;5.60;1.63;;;14.00;99.90;;;;;;5056745;28;20196;-74
2022/10/19 07:22:19;;;;;;;10.93;2.78;;;14.10;99.90;;;;;;5053494;28;20774;-73
2022/10/19 07:24:49;;;;;;;9.32;2.08;;;14.10;99.90;;;;;;5057778;28;20267;-75
2022/10/19 07:27:16;;;;;;;4.53;1.70;;;14.10;99.90;;;;;;5058072;28;20254;-77
2022/10/19 07:29:43;;;;;;;3.97;1.55;;;14.20;99.90;;;;;;5053209;28;20257;-76
2022/10/19 07:32:09;;;;;;;7.80;2.00;;;14.20;99.90;;;;;;5053699;28;20200;-76
2022/10/19 07:34:36;;;;;;;8.70;2.42;;;14.30;99.90;;;;;;5053157;28;20199;-77
2022/10/19 07:37:03;;;;;;;6.63;1.80;;;14.30;99.90;;;;;;5048159;28;20291;-76
2022/10/19 07:39:30;;;;;;;6.32;2.35;;;14.40;99.90;;;;;;5053295;28;20218;-77
2022/10/19 07:41:59;;;;;;;8.77;1.45;;;14.50;99.90;;;;;;5052271;28;20205;-76
2022/10/19 07:44:26;;;;;;;7.93;3.20;;;14.60;99.90;;;;;;5046423;28;20200;-73
2022/10/19 07:46:56;;;;;;;11.88;1.75;;;14.70;99.90;;;;;;5053603;28;20253;-74
2022/10/19 07:49:23;;;;;;;3.97;1.50;;;14.70;99.90;;;;;;5053502;28;20226;-74
2022/10/19 07:51:52;;;;;;;4.88;1.88;;;14.70;99.90;;;;;;5052816;28;20650;-74
2022/10/19 07:54:20;;;;;;;10.13;1.80;;;14.90;99.90;;;;;;5055836;28;20200;-74
2022/10/19 07:56:47;;;;;;;2.13;1.02;;;14.90;99.90;;;;;;5071329;28;20218;-73
2022/10/19 07:59:16;;;;;;;9.48;1.50;;;15.00;99.90;;;;;;5060294;28;20234;-75
2022/10/19 08:01:43;;;;;;;4.30;1.17;;;15.20;99.90;;;;;;5056873;28;20301;-73
2022/10/19 08:04:10;;;;;;;7.38;1.80;;;15.20;99.90;;;;;;5059697;28;20307;-74
2022/10/19 08:06:37;;;;;;;6.78;1.42;;;15.30;99.90;;;;;;5043390;28;20246;-73
2022/10/19 08:09:06;;;;;;;7.75;1.90;;;15.50;99.90;;;;;;5048266;28;20721;-73
2022/10/19 08:11:35;;;;;;;4.82;1.35;;;15.60;99.90;;;;;;5050936;28;20237;-75
2022/10/19 08:14:02;;;;;;;3.90;1.60;;;15.70;99.90;;;;;;5052597;28;20248;-74
2022/10/19 08:16:33;;;;;;;6.65;2.65;;;15.90;99.90;;;;;;5052197;28;20522;-75
2022/10/19 08:19:02;;;;;;;3.45;1.70;;;16.00;99.90;;;;;;5046284;28;20280;-75
2022/10/19 08:21:30;;;;;;;9.20;1.97;;;16.00;99.90;;;;;;5054539;28;20316;-78
2022/10/19 08:23:57;;;;;;;4.85;1.20;;;16.10;99.90;;;;;;5052763;28;20480;-75
2022/10/19 08:26:24;;;;;;;12.70;1.80;;;16.10;99.90;;;;;;5053089;28;20292;-78
2022/10/19 08:28:51;;;;;;;6.33;1.30;;;16.10;99.90;;;;;;5049057;28;20959;-75
2022/10/19 08:31:23;;;;;;;7.75;3.05;;;16.20;99.90;;;;;;5061370;28;20543;-75
2022/10/19 08:33:52;;;;;;;4.00;1.53;;;16.40;99.90;;;;;;5052840;28;20284;-78
2022/10/19 08:36:20;;;;;;;3.77;1.13;;;16.40;99.90;;;;;;5055553;28;20461;-77
2022/10/19 08:38:47;;;;;;;10.55;4.68;;;16.30;99.80;;;;;;5050928;28;20488;-77
2022/10/19 08:41:25;;;;;;;8.23;1.70;;;16.10;99.90;;;;;;5051352;28;20231;-76
2022/10/19 08:44:03;;;;;;;7.57;1.60;;;16.20;99.90;;;;;;5058264;28;20560;-77
2022/10/19 08:46:38;;;;;;;4.28;1.30;;;16.40;99.90;;;;;;5047935;28;20535;-75
2022/10/19 08:49:09;;;;;;;7.10;1.60;;;16.60;99.60;;;;;;5055985;28;20222;-74
2022/10/19 08:51:40;;;;;;;9.60;6.20;;;16.40;99.70;;;;;;5059491;28;20441;-77
2022/10/19 08:54:16;;;;;;;8.53;2.90;;;16.60;99.90;;;;;;5056895;28;20542;-76
2022/10/19 08:56:49;;;;;;;4.20;2.20;;;16.80;99.90;;;;;;5048744;28;20523;-74
2022/10/19 08:59:26;;;;;;;5.67;2.30;;;17.00;99.90;;;;;;5054914;28;20959;-78
2022/10/19 09:01:56;;;;;;;10.17;1.90;;;17.20;99.90;;;;;;5053449;28;20531;-74
2022/10/19 09:04:30;;;;;;;6.53;2.23;;;17.40;99.90;;;;;;5057491;28;20986;-76
2022/10/19 09:07:23;;;;;;;8.47;3.67;;;17.60;99.60;;;;;;5057590;28;20434;-76
2022/10/19 09:09:56;;;;;;;5.37;1.23;;;17.70;99.90;;;;;;5053089;28;21037;-73
2022/10/19 09:12:34;;;;;;;6.80;1.80;;;17.90;97.10;;;;;;5054611;28;20810;-73
2022/10/19 09:15:04;;;;;;;7.03;1.90;;;18.10;95.90;;;;;;5059051;28;20529;-73
2022/10/19 09:17:32;;;;;;;7.40;2.20;;;18.40;95.70;;;;;;5060387;28;20461;-73
2022/10/19 09:20:13;;;;;;;9.57;2.30;;;18.90;96.30;;;;;;5054647;28;20995;-73
2022/10/19 09:22:42;;;;;;;5.73;2.00;;;19.40;95.30;;;;;;5055756;28;20478;-73
2022/10/19 09:25:18;;;;;;;5.43;1.60;;;19.70;92.30;;;;;;5054442;28;20447;-74
2022/10/19 09:27:47;;;;;;;5.63;2.20;;;19.60;91.90;;;;;;5054122;28;20499;-73
2022/10/19 09:30:19;;;;;;;4.97;1.80;;;19.20;92.00;;;;;;5053723;28;20438;-73
2022/10/19 09:32:48;;;;;;;3.93;1.63;;;18.90;93.60;;;;;;5055168;28;20441;-74
2022/10/19 09:35:26;;;;;;;7.07;3.27;;;18.70;93.10;;;;;;5060192;28;20480;-73
2022/10/19 09:37:53;;;;;;;5.03;1.63;;;18.80;95.30;;;;;;5046846;28;20473;-74
2022/10/19 09:40:23;;;;;;;3.77;1.60;;;19.10;94.20;;;;;;5054473;28;20532;-73
2022/10/19 09:42:55;;;;;;;4.37;1.30;;;19.50;92.50;;;;;;5054743;28;20502;-74
2022/10/19 09:45:32;;;;;;;5.23;1.37;;;19.50;92.00;;;;;;5056412;28;20492;-73
2022/10/19 09:48:02;;;;;;;5.03;1.60;;;19.50;90.80;;;;;;5069755;28;20452;-74
2022/10/19 09:50:31;;;;;;;10.93;1.70;;;19.30;90.70;;;;;;5057104;28;21025;-72
2022/10/19 09:52:59;;;;;;;6.13;1.30;;;19.20;90.80;;;;;;5057124;28;20477;-73
2022/10/19 09:55:36;;;;;;;8.43;1.50;;;19.20;90.90;;;;;;5054406;28;20448;-72
2022/10/19 09:58:06;;;;;;;4.70;1.63;;;19.00;91.20;;;;;;5060226;28;20905;-72
2022/10/19 10:00:36;;;;;;;8.43;1.83;;;19.00;92.30;;;;;;5052551;28;20536;-72
2022/10/19 10:03:04;;;;;;;3.33;1.07;;;18.70;91.70;;;;;;5054565;28;20517;-72
2022/10/19 10:05:35;;;;;;;6.30;2.07;;;18.40;91.30;;;;;;5054020;28;20489;-73
2022/10/19 10:08:03;;;;;;;4.73;1.57;;;18.50;91.70;;;;;;5054415;28;20524;-73
2022/10/19 10:10:36;;;;;;;4.57;2.00;;;19.10;91.40;;;;;;5057718;28;20540;-73
2022/10/19 10:13:03;;;;;;;4.50;1.20;;;19.70;90.70;;;;;;5050250;28;20434;-75
2022/10/19 10:15:41;;;;;;;8.30;2.90;;;20.60;89.10;;;;;;5057018;28;20482;-76
2022/10/19 10:18:13;;;;;;;4.03;1.30;;;21.00;87.10;;;;;;5051437;28;20464;-74
2022/10/19 10:20:57;;;;;;;3.53;1.53;;;21.30;84.80;;;;;;5055111;28;20521;-74
2022/10/19 10:23:26;;;;;;;3.00;1.30;;;21.20;85.80;;;;;;5051224;28;20484;-72
2022/10/19 10:25:55;;;;;;;3.87;1.30;;;20.90;85.40;;;;;;5060632;28;20446;-75
2022/10/19 10:28:24;;;;;;;5.10;2.17;;;20.50;87.30;;;;;;5056342;28;20470;-75
2022/10/19 10:30:55;;;;;;;4.17;1.10;;;20.00;89.10;;;;;;5050729;28;20554;-77
2022/10/19 10:33:25;;;;;;;3.13;1.50;;;19.50;89.90;;;;;;5054229;28;20442;-78
2022/10/19 10:35:57;;;;;;;3.87;1.27;;;19.10;90.40;;;;;;5053248;28;20469;-74
2022/10/19 10:38:28;;;;;;;3.70;1.27;;;18.90;91.80;;;;;;5056290;28;20469;-75
2022/10/19 10:40:57;;;;;;;3.70;1.47;;;19.10;91.50;;;;;;5052205;28;20442;-77
2022/10/19 10:43:29;;;;;;;5.83;1.50;;;19.50;90.50;;;;;;5053851;28;21034;-74
2022/10/19 10:46:01;;;;;;;8.23;1.90;;;19.70;90.30;;;;;;5053111;28;20451;-75
2022/10/19 10:48:30;;;;;;;10.43;1.70;;;19.50;90.20;;;;;;5054797;28;20518;-75
2022/10/19 10:51:00;;;;;;;4.03;1.80;;;19.10;91.00;;;;;;5056651;28;20551;-75
2022/10/19 10:53:45;;;;;;;8.43;1.67;;;19.10;90.70;;;;;;5058922;28;20528;-79
2022/10/19 10:56:23;;;;;;;4.20;1.10;;;19.10;90.80;;;;;;5047923;28;20544;-75
2022/10/19 10:58:58;;;;;;;5.00;1.50;;;18.90;90.60;;;;;;5050300;28;20468;-78
2022/10/19 11:01:29;;;;;;;6.40;2.23;;;18.90;91.10;;;;;;5053453;28;20994;-78
2022/10/19 11:04:02;;;;;;;6.50;2.17;;;19.10;90.60;;;;;;5053047;28;20485;-75
2022/10/19 11:06:36;;;;;;;5.77;1.30;;;18.90;91.00;;;;;;5063386;28;20533;-77
2022/10/19 11:09:12;;;;;;;4.83;2.10;;;18.80;91.00;;;;;;5061935;28;20467;-76
2022/10/19 11:11:44;;;;;;;3.10;1.60;;;18.80;91.30;;;;;;5055042;28;20511;-76
2022/10/19 11:14:35;;;;;;;4.60;1.37;;;18.70;91.00;;;;;;5059550;28;20511;-75
2022/10/19 11:17:06;;;;;;;3.20;1.50;;;18.30;91.30;;;;;;5056728;28;20437;-75
2022/10/19 11:19:36;;;;;;;6.97;2.50;;;17.80;92.10;;;;;;5055996;28;20779;-76
2022/10/19 11:22:14;;;;;;;6.30;1.60;;;17.60;92.70;;;;;;5058267;28;21350;-77
2022/10/19 11:24:54;;;;;;;4.40;2.20;;;17.20;93.30;;;;;;5054293;28;20489;-76
2022/10/19 11:27:32;;;;;;;4.60;1.97;;;16.90;94.10;;;;;;5053464;28;20441;-76
2022/10/19 11:30:08;;;;;;;3.70;1.67;;;16.90;94.70;;;;;;5053593;28;20446;-74
2022/10/19 11:32:44;;;;;;;7.23;1.63;;;16.70;94.70;;;;;;5055448;28;20764;-76
2022/10/19 11:35:29;;;;;;;6.77;1.80;;;16.50;95.40;;;;;;5054992;28;20524;-76
2022/10/19 11:38:07;;;;;;;4.03;1.63;;;16.50;95.90;;;;;;5057969;28;20470;-77
2022/10/19 11:40:38;;;;;;;6.33;1.73;;;16.40;96.00;;;;;;5067399;28;20521;-76
2022/10/19 11:43:11;;;;;;;7.30;1.40;;;16.30;96.30;;;;;;5063154;28;20463;-76
2022/10/19 11:45:48;;;;;;;4.40;1.57;;;16.30;96.80;;;;;;5053632;28;20533;-75
2022/10/19 11:48:41;;;;;;;7.63;1.90;;;16.40;97.10;;;;;;5057922;28;20515;-74
2022/10/19 11:51:16;;;;;;;6.37;1.70;;;16.40;96.40;;;;;;5052866;28;20449;-77
2022/10/19 11:53:55;;;;;;;5.53;1.50;;;16.50;97.30;;;;;;5055965;28;20528;-76
2022/10/19 11:56:29;;;;;;;6.60;1.50;;;16.40;97.10;;;;;;5052927;28;20493;-77
2022/10/19 11:59:07;;;;;;;6.90;2.03;;;16.40;96.80;;;;;;5050797;28;20469;-75
2022/10/19 12:01:44;;;;;;;2.30;1.60;;;16.30;97.30;;;;;;5051545;28;20942;-77
2022/10/19 12:04:43;;;;;;;4.63;2.10;;;16.20;97.20;;;;;;5053017;28;20598;-78
2022/10/19 12:07:26;;;;;;;5.00;1.50;;;16.30;97.30;;;;;;5047205;28;20775;-75
2022/10/19 12:10:00;;;;;;;5.90;1.90;;;16.20;97.70;;;;;;5052301;28;20456;-77
2022/10/19 12:12:31;;;;;;;2.67;1.27;;;16.30;97.60;;;;;;5052436;28;20456;-75
2022/10/19 12:15:13;;;;;;;5.55;1.50;;;16.30;97.40;;;;;;5051813;28;20511;-75
2022/10/19 12:17:44;;;;;;;4.90;1.60;;;16.30;96.90;;;;;;5047097;28;20329;-76
2022/10/19 12:20:21;;;;;;;8.43;1.30;;;16.30;97.30;;;;;;5052874;28;20528;-75
2022/10/19 12:22:49;;;;;;;4.03;1.50;;;16.30;97.30;;;;;;5043627;28;20451;-77
2022/10/19 12:25:19;;;;;;;6.53;1.77;;;16.30;97.60;;;;;;5051062;28;21032;-77
2022/10/19 12:27:48;;;;;;;2.73;1.40;;;16.30;98.20;;;;;;5065430;28;20871;-75
2022/10/19 12:30:19;;;;;;;4.83;1.20;;;16.30;97.10;;;;;;5051435;28;20502;-79
2022/10/19 12:33:01;;;;;;;3.87;1.70;;;16.20;97.20;;;;;;5054892;28;20502;-74
2022/10/19 12:35:46;;;;;;;4.97;1.73;;;16.20;97.20;;;;;;5057452;28;20536;-75
2022/10/19 12:38:19;;;;;;;3.53;2.30;;;16.30;98.20;;;;;;5059680;28;20527;-77
2022/10/19 12:40:56;;;;;;;3.77;1.23;;;16.40;97.30;;;;;;5051239;28;20528;-77
2022/10/19 12:43:31;;;;;;;7.50;3.10;;;16.60;96.40;;;;;;5051485;28;20445;-75
2022/10/19 12:46:08;;;;;;;8.77;2.70;;;16.60;97.30;;;;;;5052198;28;20984;-78
2022/10/19 12:48:38;;;;;;;9.00;2.10;;;16.80;96.80;;;;;;5053597;28;20480;-78
2022/10/19 12:51:12;;;;;;;4.30;2.03;;;17.00;95.40;;;;;;5062917;28;20603;-75
2022/10/19 12:53:40;;;;;;;3.30;1.93;;;17.10;94.80;;;;;;5054941;28;20441;-75
2022/10/19 12:56:15;;;;;;;3.80;2.00;;;17.00;94.60;;;;;;5053995;28;20446;-75
2022/10/19 12:58:51;;;;;;;6.37;1.67;;;16.90;94.90;;;;;;5054461;28;20515;-75
2022/10/19 13:01:21;;;;;;;5.80;1.27;;;16.70;95.40;;;;;;5056015;28;20448;-76
2022/10/19 13:03:51;;;;;;;3.70;1.33;;;16.50;95.50;;;;;;5062741;28;20559;-76